sensor_id;sensor_type;location;lat;lon;timestamp;P1;durP1;ratioP1;P2;durP2;ratioP2
5684;SDS011;2865;53.114;9.130;2022-08-03T00:01:34;5.67;;;4.17;;
5684;SDS011;2865;53.114;9.130;2022-08-03T00:03:59;5.70;;;5.00;;
5684;SDS011;2865;53.114;9.130;2022-08-03T00:06:25;5.47;;;5.00;;
5684;SDS011;2865;53.114;9.130;2022-08-03T00:08:50;5.33;;;4.83;;
5684;SDS011;2865;53.114;9.130;2022-08-03T00:11:16;6.20;;;5.70;;
5684;SDS011;2865;53.114;9.130;2022-08-03T00:13:41;12.90;;;6.27;;
5684;SDS011;2865;53.114;9.130;2022-08-03T00:16:06;7.23;;;6.57;;
5684;SDS011;2865;53.114;9.130;2022-08-03T00:18:32;5.30;;;4.67;;
5684;SDS011;2865;53.114;9.130;2022-08-03T00:20:57;4.73;;;4.33;;
5684;SDS011;2865;53.114;9.130;2022-08-03T00:23:22;4.83;;;4.33;;
5684;SDS011;2865;53.114;9.130;2022-08-03T00:25:48;13.63;;;5.70;;
5684;SDS011;2865;53.114;9.130;2022-08-03T00:28:13;5.60;;;5.20;;
5684;SDS011;2865;53.114;9.130;2022-08-03T00:30:38;5.50;;;5.00;;
5684;SDS011;2865;53.114;9.130;2022-08-03T00:33:04;5.90;;;5.40;;
5684;SDS011;2865;53.114;9.130;2022-08-03T00:35:29;5.57;;;5.10;;
5684;SDS011;2865;53.114;9.130;2022-08-03T00:37:54;7.53;;;6.37;;
5684;SDS011;2865;53.114;9.130;2022-08-03T00:40:20;5.80;;;5.20;;
5684;SDS011;2865;53.114;9.130;2022-08-03T00:42:51;5.63;;;5.13;;
5684;SDS011;2865;53.114;9.130;2022-08-03T00:45:20;8.00;;;6.20;;
5684;SDS011;2865;53.114;9.130;2022-08-03T00:47:45;5.53;;;5.13;;
5684;SDS011;2865;53.114;9.130;2022-08-03T00:50:10;5.83;;;5.33;;
5684;SDS011;2865;53.114;9.130;2022-08-03T00:52:35;8.07;;;5.30;;
5684;SDS011;2865;53.114;9.130;2022-08-03T00:55:01;7.10;;;5.50;;
5684;SDS011;2865;53.114;9.130;2022-08-03T00:57:27;5.80;;;5.27;;
5684;SDS011;2865;53.114;9.130;2022-08-03T00:59:52;6.10;;;5.10;;
5684;SDS011;2865;53.114;9.130;2022-08-03T01:02:17;6.43;;;5.83;;
5684;SDS011;2865;53.114;9.130;2022-08-03T01:04:42;14.00;;;5.40;;
5684;SDS011;2865;53.114;9.130;2022-08-03T01:07:14;6.20;;;5.60;;
5684;SDS011;2865;53.114;9.130;2022-08-03T01:09:40;8.77;;;6.40;;
5684;SDS011;2865;53.114;9.130;2022-08-03T01:12:06;8.60;;;5.60;;
5684;SDS011;2865;53.114;9.130;2022-08-03T01:14:31;7.00;;;5.77;;
5684;SDS011;2865;53.114;9.130;2022-08-03T01:16:58;8.30;;;6.43;;
5684;SDS011;2865;53.114;9.130;2022-08-03T01:22:07;7.10;;;5.83;;
5684;SDS011;2865;53.114;9.130;2022-08-03T01:27:46;6.03;;;5.43;;
5684;SDS011;2865;53.114;9.130;2022-08-03T01:30:13;6.93;;;6.10;;
5684;SDS011;2865;53.114;9.130;2022-08-03T01:32:40;6.13;;;5.60;;
5684;SDS011;2865;53.114;9.130;2022-08-03T01:35:05;6.87;;;6.23;;
5684;SDS011;2865;53.114;9.130;2022-08-03T01:37:31;5.63;;;5.13;;
5684;SDS011;2865;53.114;9.130;2022-08-03T01:39:56;7.43;;;6.00;;
5684;SDS011;2865;53.114;9.130;2022-08-03T01:42:21;8.73;;;6.00;;
5684;SDS011;2865;53.114;9.130;2022-08-03T01:44:46;6.53;;;5.80;;
5684;SDS011;2865;53.114;9.130;2022-08-03T01:47:11;10.40;;;7.47;;
5684;SDS011;2865;53.114;9.130;2022-08-03T01:49:37;7.40;;;6.67;;
5684;SDS011;2865;53.114;9.130;2022-08-03T01:52:03;7.67;;;6.97;;
5684;SDS011;2865;53.114;9.130;2022-08-03T01:54:28;9.57;;;6.70;;
5684;SDS011;2865;53.114;9.130;2022-08-03T01:56:53;7.10;;;6.33;;
5684;SDS011;2865;53.114;9.130;2022-08-03T01:59:19;7.03;;;6.40;;
5684;SDS011;2865;53.114;9.130;2022-08-03T02:01:44;7.97;;;7.27;;
5684;SDS011;2865;53.114;9.130;2022-08-03T02:04:09;6.83;;;6.23;;
5684;SDS011;2865;53.114;9.130;2022-08-03T02:06:35;7.60;;;6.93;;
5684;SDS011;2865;53.114;9.130;2022-08-03T02:09:00;7.17;;;6.13;;
5684;SDS011;2865;53.114;9.130;2022-08-03T02:11:26;8.50;;;7.40;;
5684;SDS011;2865;53.114;9.130;2022-08-03T02:13:51;7.80;;;6.50;;
5684;SDS011;2865;53.114;9.130;2022-08-03T02:16:17;8.50;;;7.70;;
5684;SDS011;2865;53.114;9.130;2022-08-03T02:18:42;7.60;;;6.10;;
5684;SDS011;2865;53.114;9.130;2022-08-03T02:21:08;9.30;;;7.90;;
5684;SDS011;2865;53.114;9.130;2022-08-03T02:23:32;8.53;;;7.63;;
5684;SDS011;2865;53.114;9.130;2022-08-03T02:25:59;7.47;;;6.87;;
5684;SDS011;2865;53.114;9.130;2022-08-03T02:28:28;7.37;;;6.67;;
5684;SDS011;2865;53.114;9.130;2022-08-03T02:30:51;8.30;;;7.50;;
5684;SDS011;2865;53.114;9.130;2022-08-03T02:33:17;8.37;;;7.67;;
5684;SDS011;2865;53.114;9.130;2022-08-03T02:35:41;8.57;;;7.77;;
5684;SDS011;2865;53.114;9.130;2022-08-03T02:38:07;8.00;;;7.33;;
5684;SDS011;2865;53.114;9.130;2022-08-03T02:40:32;8.37;;;7.60;;
5684;SDS011;2865;53.114;9.130;2022-08-03T02:42:59;7.83;;;7.23;;
5684;SDS011;2865;53.114;9.130;2022-08-03T02:45:24;10.13;;;9.13;;
5684;SDS011;2865;53.114;9.130;2022-08-03T02:47:49;8.30;;;7.37;;
5684;SDS011;2865;53.114;9.130;2022-08-03T02:50:15;7.53;;;6.93;;
5684;SDS011;2865;53.114;9.130;2022-08-03T02:52:39;9.40;;;8.50;;
5684;SDS011;2865;53.114;9.130;2022-08-03T02:55:05;8.87;;;8.07;;
5684;SDS011;2865;53.114;9.130;2022-08-03T02:57:31;8.90;;;8.03;;
5684;SDS011;2865;53.114;9.130;2022-08-03T02:59:57;8.30;;;7.60;;
5684;SDS011;2865;53.114;9.130;2022-08-03T03:02:22;9.23;;;8.40;;
5684;SDS011;2865;53.114;9.130;2022-08-03T03:04:49;9.60;;;8.60;;
5684;SDS011;2865;53.114;9.130;2022-08-03T03:07:12;10.83;;;8.20;;
5684;SDS011;2865;53.114;9.130;2022-08-03T03:09:38;9.80;;;8.90;;
5684;SDS011;2865;53.114;9.130;2022-08-03T03:12:03;11.90;;;10.37;;
5684;SDS011;2865;53.114;9.130;2022-08-03T03:14:29;12.50;;;10.07;;
5684;SDS011;2865;53.114;9.130;2022-08-03T03:16:54;8.77;;;7.87;;
5684;SDS011;2865;53.114;9.130;2022-08-03T03:19:20;9.77;;;8.83;;
5684;SDS011;2865;53.114;9.130;2022-08-03T03:21:45;9.53;;;8.63;;
5684;SDS011;2865;53.114;9.130;2022-08-03T03:24:10;9.20;;;8.40;;
5684;SDS011;2865;53.114;9.130;2022-08-03T03:26:36;9.07;;;8.27;;
5684;SDS011;2865;53.114;9.130;2022-08-03T03:29:01;10.00;;;8.90;;
5684;SDS011;2865;53.114;9.130;2022-08-03T03:31:26;9.97;;;8.93;;
5684;SDS011;2865;53.114;9.130;2022-08-03T03:33:52;8.60;;;7.80;;
5684;SDS011;2865;53.114;9.130;2022-08-03T03:36:17;9.43;;;8.53;;
5684;SDS011;2865;53.114;9.130;2022-08-03T03:38:42;9.90;;;8.90;;
5684;SDS011;2865;53.114;9.130;2022-08-03T03:41:08;9.97;;;8.77;;
5684;SDS011;2865;53.114;9.130;2022-08-03T03:43:33;9.17;;;8.27;;
5684;SDS011;2865;53.114;9.130;2022-08-03T03:45:58;10.57;;;9.67;;
5684;SDS011;2865;53.114;9.130;2022-08-03T03:48:24;10.10;;;9.10;;
5684;SDS011;2865;53.114;9.130;2022-08-03T03:50:49;9.53;;;8.60;;
5684;SDS011;2865;53.114;9.130;2022-08-03T03:53:15;9.67;;;8.87;;
5684;SDS011;2865;53.114;9.130;2022-08-03T03:55:40;9.60;;;8.70;;
5684;SDS011;2865;53.114;9.130;2022-08-03T03:58:05;8.50;;;7.70;;
5684;SDS011;2865;53.114;9.130;2022-08-03T04:00:31;12.90;;;10.07;;
5684;SDS011;2865;53.114;9.130;2022-08-03T04:02:56;9.60;;;8.70;;
5684;SDS011;2865;53.114;9.130;2022-08-03T04:05:21;9.43;;;8.73;;
5684;SDS011;2865;53.114;9.130;2022-08-03T04:07:58;8.80;;;8.10;;
5684;SDS011;2865;53.114;9.130;2022-08-03T04:10:28;9.93;;;8.93;;
5684;SDS011;2865;53.114;9.130;2022-08-03T04:12:59;10.53;;;9.10;;
5684;SDS011;2865;53.114;9.130;2022-08-03T04:15:26;14.43;;;8.80;;
5684;SDS011;2865;53.114;9.130;2022-08-03T04:17:50;11.80;;;8.73;;
5684;SDS011;2865;53.114;9.130;2022-08-03T04:20:16;10.07;;;9.27;;
5684;SDS011;2865;53.114;9.130;2022-08-03T04:22:41;10.43;;;9.43;;
5684;SDS011;2865;53.114;9.130;2022-08-03T04:25:07;10.27;;;8.30;;
5684;SDS011;2865;53.114;9.130;2022-08-03T04:27:33;9.70;;;8.80;;
5684;SDS011;2865;53.114;9.130;2022-08-03T04:29:59;9.13;;;8.23;;
5684;SDS011;2865;53.114;9.130;2022-08-03T04:32:24;8.10;;;7.30;;
5684;SDS011;2865;53.114;9.130;2022-08-03T04:34:50;10.10;;;9.27;;
5684;SDS011;2865;53.114;9.130;2022-08-03T04:37:19;10.33;;;8.10;;
5684;SDS011;2865;53.114;9.130;2022-08-03T04:39:43;9.53;;;8.63;;
5684;SDS011;2865;53.114;9.130;2022-08-03T04:42:08;9.93;;;8.33;;
5684;SDS011;2865;53.114;9.130;2022-08-03T04:44:34;8.53;;;7.63;;
5684;SDS011;2865;53.114;9.130;2022-08-03T04:47:00;9.63;;;8.17;;
5684;SDS011;2865;53.114;9.130;2022-08-03T04:49:25;8.33;;;7.63;;
5684;SDS011;2865;53.114;9.130;2022-08-03T04:51:50;9.13;;;8.27;;
5684;SDS011;2865;53.114;9.130;2022-08-03T04:54:16;8.80;;;7.97;;
5684;SDS011;2865;53.114;9.130;2022-08-03T04:56:41;9.97;;;9.00;;
5684;SDS011;2865;53.114;9.130;2022-08-03T04:59:07;8.57;;;7.80;;
5684;SDS011;2865;53.114;9.130;2022-08-03T05:01:32;11.90;;;8.33;;
5684;SDS011;2865;53.114;9.130;2022-08-03T05:03:57;9.23;;;8.47;;
5684;SDS011;2865;53.114;9.130;2022-08-03T05:06:22;10.80;;;8.77;;
5684;SDS011;2865;53.114;9.130;2022-08-03T05:08:48;9.57;;;8.70;;
5684;SDS011;2865;53.114;9.130;2022-08-03T05:11:14;9.27;;;8.13;;
5684;SDS011;2865;53.114;9.130;2022-08-03T05:13:38;7.90;;;7.07;;
5684;SDS011;2865;53.114;9.130;2022-08-03T05:16:04;7.40;;;6.80;;
5684;SDS011;2865;53.114;9.130;2022-08-03T05:18:29;8.10;;;7.40;;
5684;SDS011;2865;53.114;9.130;2022-08-03T05:20:55;9.03;;;8.10;;
5684;SDS011;2865;53.114;9.130;2022-08-03T05:23:20;11.00;;;6.90;;
5684;SDS011;2865;53.114;9.130;2022-08-03T05:25:45;7.73;;;6.97;;
5684;SDS011;2865;53.114;9.130;2022-08-03T05:28:11;11.03;;;6.80;;
5684;SDS011;2865;53.114;9.130;2022-08-03T05:30:36;7.27;;;6.67;;
5684;SDS011;2865;53.114;9.130;2022-08-03T05:33:02;7.33;;;6.50;;
5684;SDS011;2865;53.114;9.130;2022-08-03T05:35:27;6.93;;;6.23;;
5684;SDS011;2865;53.114;9.130;2022-08-03T05:37:52;7.33;;;6.60;;
5684;SDS011;2865;53.114;9.130;2022-08-03T05:40:18;6.33;;;5.73;;
5684;SDS011;2865;53.114;9.130;2022-08-03T05:42:43;5.47;;;5.00;;
5684;SDS011;2865;53.114;9.130;2022-08-03T05:45:09;9.03;;;5.33;;
5684;SDS011;2865;53.114;9.130;2022-08-03T05:47:39;5.30;;;4.80;;
5684;SDS011;2865;53.114;9.130;2022-08-03T05:50:04;5.40;;;4.97;;
5684;SDS011;2865;53.114;9.130;2022-08-03T05:52:31;6.33;;;5.83;;
5684;SDS011;2865;53.114;9.130;2022-08-03T05:54:56;7.87;;;4.93;;
5684;SDS011;2865;53.114;9.130;2022-08-03T05:57:22;6.03;;;5.20;;
5684;SDS011;2865;53.114;9.130;2022-08-03T05:59:47;5.20;;;4.80;;
5684;SDS011;2865;53.114;9.130;2022-08-03T06:02:12;5.23;;;4.67;;
5684;SDS011;2865;53.114;9.130;2022-08-03T06:04:38;12.57;;;6.30;;
5684;SDS011;2865;53.114;9.130;2022-08-03T06:07:04;6.67;;;5.30;;
5684;SDS011;2865;53.114;9.130;2022-08-03T06:09:29;5.13;;;4.70;;
5684;SDS011;2865;53.114;9.130;2022-08-03T06:11:55;4.90;;;4.50;;
5684;SDS011;2865;53.114;9.130;2022-08-03T06:14:20;7.03;;;4.87;;
5684;SDS011;2865;53.114;9.130;2022-08-03T06:16:45;6.83;;;5.00;;
5684;SDS011;2865;53.114;9.130;2022-08-03T06:19:11;10.13;;;4.80;;
5684;SDS011;2865;53.114;9.130;2022-08-03T06:21:36;6.00;;;4.07;;
5684;SDS011;2865;53.114;9.130;2022-08-03T06:24:02;5.47;;;4.93;;
5684;SDS011;2865;53.114;9.130;2022-08-03T06:26:27;11.50;;;4.37;;
5684;SDS011;2865;53.114;9.130;2022-08-03T06:28:53;4.53;;;3.93;;
5684;SDS011;2865;53.114;9.130;2022-08-03T06:31:18;6.17;;;3.90;;
5684;SDS011;2865;53.114;9.130;2022-08-03T06:33:44;4.20;;;3.83;;
5684;SDS011;2865;53.114;9.130;2022-08-03T06:36:09;4.20;;;3.47;;
5684;SDS011;2865;53.114;9.130;2022-08-03T06:38:35;5.60;;;3.67;;
5684;SDS011;2865;53.114;9.130;2022-08-03T06:41:00;9.93;;;3.40;;
5684;SDS011;2865;53.114;9.130;2022-08-03T06:43:25;3.93;;;3.57;;
5684;SDS011;2865;53.114;9.130;2022-08-03T06:45:51;5.07;;;3.80;;
5684;SDS011;2865;53.114;9.130;2022-08-03T06:48:16;4.37;;;3.60;;
5684;SDS011;2865;53.114;9.130;2022-08-03T06:50:41;4.20;;;3.80;;
5684;SDS011;2865;53.114;9.130;2022-08-03T06:53:07;8.00;;;4.13;;
5684;SDS011;2865;53.114;9.130;2022-08-03T06:55:33;3.90;;;3.60;;
5684;SDS011;2865;53.114;9.130;2022-08-03T06:57:59;4.83;;;4.30;;
5684;SDS011;2865;53.114;9.130;2022-08-03T07:00:24;3.87;;;3.40;;
5684;SDS011;2865;53.114;9.130;2022-08-03T07:02:50;4.87;;;3.50;;
5684;SDS011;2865;53.114;9.130;2022-08-03T07:05:15;3.90;;;3.23;;
5684;SDS011;2865;53.114;9.130;2022-08-03T07:07:41;3.70;;;3.33;;
5684;SDS011;2865;53.114;9.130;2022-08-03T07:10:06;3.77;;;3.27;;
5684;SDS011;2865;53.114;9.130;2022-08-03T07:12:32;3.20;;;3.00;;
5684;SDS011;2865;53.114;9.130;2022-08-03T07:14:58;3.23;;;2.67;;
5684;SDS011;2865;53.114;9.130;2022-08-03T07:17:23;3.83;;;3.03;;
5684;SDS011;2865;53.114;9.130;2022-08-03T07:19:48;5.63;;;3.27;;
5684;SDS011;2865;53.114;9.130;2022-08-03T07:22:13;4.30;;;2.67;;
5684;SDS011;2865;53.114;9.130;2022-08-03T07:24:39;4.10;;;2.80;;
5684;SDS011;2865;53.114;9.130;2022-08-03T07:27:04;4.40;;;2.80;;
5684;SDS011;2865;53.114;9.130;2022-08-03T07:29:29;2.33;;;2.13;;
5684;SDS011;2865;53.114;9.130;2022-08-03T07:31:55;4.17;;;2.63;;
5684;SDS011;2865;53.114;9.130;2022-08-03T07:34:20;3.50;;;2.40;;
5684;SDS011;2865;53.114;9.130;2022-08-03T07:36:45;2.77;;;2.50;;
5684;SDS011;2865;53.114;9.130;2022-08-03T07:39:11;3.83;;;2.70;;
5684;SDS011;2865;53.114;9.130;2022-08-03T07:41:36;2.40;;;2.20;;
5684;SDS011;2865;53.114;9.130;2022-08-03T07:44:02;2.53;;;2.00;;
5684;SDS011;2865;53.114;9.130;2022-08-03T07:46:27;3.83;;;2.20;;
5684;SDS011;2865;53.114;9.130;2022-08-03T07:48:52;2.40;;;2.20;;
5684;SDS011;2865;53.114;9.130;2022-08-03T07:51:18;2.50;;;2.20;;
5684;SDS011;2865;53.114;9.130;2022-08-03T07:53:43;4.90;;;2.50;;
5684;SDS011;2865;53.114;9.130;2022-08-03T07:56:08;5.00;;;2.57;;
5684;SDS011;2865;53.114;9.130;2022-08-03T07:58:34;12.67;;;2.73;;
5684;SDS011;2865;53.114;9.130;2022-08-03T08:00:59;2.63;;;1.70;;
5684;SDS011;2865;53.114;9.130;2022-08-03T08:03:24;9.43;;;2.70;;
5684;SDS011;2865;53.114;9.130;2022-08-03T08:05:50;9.07;;;3.20;;
5684;SDS011;2865;53.114;9.130;2022-08-03T08:08:15;3.10;;;2.10;;
5684;SDS011;2865;53.114;9.130;2022-08-03T08:10:41;2.70;;;1.73;;
5684;SDS011;2865;53.114;9.130;2022-08-03T08:13:06;6.90;;;1.90;;
5684;SDS011;2865;53.114;9.130;2022-08-03T08:15:32;2.77;;;2.27;;
5684;SDS011;2865;53.114;9.130;2022-08-03T08:17:57;8.60;;;1.90;;
5684;SDS011;2865;53.114;9.130;2022-08-03T08:20:24;5.93;;;1.80;;
5684;SDS011;2865;53.114;9.130;2022-08-03T08:22:49;2.00;;;1.73;;
5684;SDS011;2865;53.114;9.130;2022-08-03T08:25:15;4.03;;;1.97;;
5684;SDS011;2865;53.114;9.130;2022-08-03T08:27:43;4.40;;;2.07;;
5684;SDS011;2865;53.114;9.130;2022-08-03T08:30:08;6.10;;;1.83;;
5684;SDS011;2865;53.114;9.130;2022-08-03T08:32:34;2.50;;;1.60;;
5684;SDS011;2865;53.114;9.130;2022-08-03T08:34:59;2.07;;;1.60;;
5684;SDS011;2865;53.114;9.130;2022-08-03T08:37:24;3.43;;;1.90;;
5684;SDS011;2865;53.114;9.130;2022-08-03T08:39:50;3.33;;;1.67;;
5684;SDS011;2865;53.114;9.130;2022-08-03T08:42:15;3.07;;;2.03;;
5684;SDS011;2865;53.114;9.130;2022-08-03T08:44:42;4.37;;;1.80;;
5684;SDS011;2865;53.114;9.130;2022-08-03T08:47:07;7.70;;;1.30;;
5684;SDS011;2865;53.114;9.130;2022-08-03T08:49:32;2.80;;;1.60;;
5684;SDS011;2865;53.114;9.130;2022-08-03T08:51:58;4.70;;;1.47;;
5684;SDS011;2865;53.114;9.130;2022-08-03T08:54:23;10.13;;;1.50;;
5684;SDS011;2865;53.114;9.130;2022-08-03T08:56:49;3.50;;;1.67;;
5684;SDS011;2865;53.114;9.130;2022-08-03T08:59:15;2.30;;;1.40;;
5684;SDS011;2865;53.114;9.130;2022-08-03T09:01:40;6.17;;;1.60;;
5684;SDS011;2865;53.114;9.130;2022-08-03T09:04:06;5.97;;;1.27;;
5684;SDS011;2865;53.114;9.130;2022-08-03T09:06:31;4.83;;;1.50;;
5684;SDS011;2865;53.114;9.130;2022-08-03T09:08:56;3.23;;;1.80;;
5684;SDS011;2865;53.114;9.130;2022-08-03T09:11:22;3.30;;;1.83;;
5684;SDS011;2865;53.114;9.130;2022-08-03T09:13:47;5.70;;;1.87;;
5684;SDS011;2865;53.114;9.130;2022-08-03T09:16:15;5.10;;;1.53;;
5684;SDS011;2865;53.114;9.130;2022-08-03T09:18:41;1.77;;;1.53;;
5684;SDS011;2865;53.114;9.130;2022-08-03T09:23:43;4.10;;;1.80;;
5684;SDS011;2865;53.114;9.130;2022-08-03T09:26:09;3.10;;;1.40;;
5684;SDS011;2865;53.114;9.130;2022-08-03T09:28:35;4.83;;;1.57;;
5684;SDS011;2865;53.114;9.130;2022-08-03T09:31:00;3.03;;;1.90;;
5684;SDS011;2865;53.114;9.130;2022-08-03T09:33:25;4.60;;;1.40;;
5684;SDS011;2865;53.114;9.130;2022-08-03T09:35:51;5.07;;;1.70;;
5684;SDS011;2865;53.114;9.130;2022-08-03T09:38:18;2.80;;;1.20;;
5684;SDS011;2865;53.114;9.130;2022-08-03T09:40:44;3.33;;;1.50;;
5684;SDS011;2865;53.114;9.130;2022-08-03T09:43:09;2.00;;;1.30;;
5684;SDS011;2865;53.114;9.130;2022-08-03T09:45:35;5.97;;;1.60;;
5684;SDS011;2865;53.114;9.130;2022-08-03T09:48:18;3.37;;;1.83;;
5684;SDS011;2865;53.114;9.130;2022-08-03T09:53:12;4.93;;;1.43;;
5684;SDS011;2865;53.114;9.130;2022-08-03T09:55:37;8.10;;;1.97;;
5684;SDS011;2865;53.114;9.130;2022-08-03T09:58:04;3.10;;;1.37;;
5684;SDS011;2865;53.114;9.130;2022-08-03T10:00:29;7.53;;;1.80;;
5684;SDS011;2865;53.114;9.130;2022-08-03T10:03:02;2.40;;;1.30;;
5684;SDS011;2865;53.114;9.130;2022-08-03T10:05:20;3.03;;;1.70;;
5684;SDS011;2865;53.114;9.130;2022-08-03T10:07:46;3.20;;;1.50;;
5684;SDS011;2865;53.114;9.130;2022-08-03T10:10:10;3.53;;;1.40;;
5684;SDS011;2865;53.114;9.130;2022-08-03T10:12:36;2.80;;;1.70;;
5684;SDS011;2865;53.114;9.130;2022-08-03T10:15:01;6.67;;;1.30;;
5684;SDS011;2865;53.114;9.130;2022-08-03T10:17:26;3.23;;;1.87;;
5684;SDS011;2865;53.114;9.130;2022-08-03T10:19:52;5.97;;;2.40;;
5684;SDS011;2865;53.114;9.130;2022-08-03T10:22:18;3.17;;;1.40;;
5684;SDS011;2865;53.114;9.130;2022-08-03T10:25:19;2.30;;;1.70;;
5684;SDS011;2865;53.114;9.130;2022-08-03T10:27:31;8.97;;;1.70;;
5684;SDS011;2865;53.114;9.130;2022-08-03T10:29:53;6.20;;;1.77;;
5684;SDS011;2865;53.114;9.130;2022-08-03T10:32:20;2.60;;;1.40;;
5684;SDS011;2865;53.114;9.130;2022-08-03T10:34:43;2.00;;;1.70;;
5684;SDS011;2865;53.114;9.130;2022-08-03T10:37:08;4.20;;;1.40;;
5684;SDS011;2865;53.114;9.130;2022-08-03T10:39:33;7.63;;;1.73;;
5684;SDS011;2865;53.114;9.130;2022-08-03T10:41:59;2.63;;;1.30;;
5684;SDS011;2865;53.114;9.130;2022-08-03T10:44:25;10.87;;;1.93;;
5684;SDS011;2865;53.114;9.130;2022-08-03T10:46:50;3.67;;;1.47;;
5684;SDS011;2865;53.114;9.130;2022-08-03T10:49:16;6.33;;;1.80;;
5684;SDS011;2865;53.114;9.130;2022-08-03T10:51:41;2.23;;;1.90;;
5684;SDS011;2865;53.114;9.130;2022-08-03T10:54:07;4.60;;;1.50;;
5684;SDS011;2865;53.114;9.130;2022-08-03T10:59:10;5.13;;;2.20;;
5684;SDS011;2865;53.114;9.130;2022-08-03T11:04:13;2.17;;;1.50;;
5684;SDS011;2865;53.114;9.130;2022-08-03T11:06:39;5.73;;;1.40;;
5684;SDS011;2865;53.114;9.130;2022-08-03T11:09:16;4.00;;;1.80;;
5684;SDS011;2865;53.114;9.130;2022-08-03T11:11:42;2.83;;;1.67;;
5684;SDS011;2865;53.114;9.130;2022-08-03T11:14:07;4.07;;;1.67;;
5684;SDS011;2865;53.114;9.130;2022-08-03T11:16:34;2.53;;;1.40;;
5684;SDS011;2865;53.114;9.130;2022-08-03T11:19:02;5.70;;;2.00;;
5684;SDS011;2865;53.114;9.130;2022-08-03T11:24:04;14.50;;;1.80;;
5684;SDS011;2865;53.114;9.130;2022-08-03T11:26:30;2.67;;;1.70;;
5684;SDS011;2865;53.114;9.130;2022-08-03T11:29:09;7.33;;;2.67;;
5684;SDS011;2865;53.114;9.130;2022-08-03T11:34:08;4.00;;;1.30;;
5684;SDS011;2865;53.114;9.130;2022-08-03T11:39:11;4.63;;;1.47;;
5684;SDS011;2865;53.114;9.130;2022-08-03T11:41:37;6.03;;;1.77;;
5684;SDS011;2865;53.114;9.130;2022-08-03T11:44:02;7.53;;;2.20;;
5684;SDS011;2865;53.114;9.130;2022-08-03T11:46:28;2.90;;;1.40;;
5684;SDS011;2865;53.114;9.130;2022-08-03T11:48:53;4.40;;;1.50;;
5684;SDS011;2865;53.114;9.130;2022-08-03T11:51:21;7.93;;;1.80;;
5684;SDS011;2865;53.114;9.130;2022-08-03T11:53:45;3.80;;;2.10;;
5684;SDS011;2865;53.114;9.130;2022-08-03T11:56:11;4.63;;;1.80;;
5684;SDS011;2865;53.114;9.130;2022-08-03T11:58:36;3.20;;;1.17;;
5684;SDS011;2865;53.114;9.130;2022-08-03T12:01:02;2.80;;;1.53;;
5684;SDS011;2865;53.114;9.130;2022-08-03T12:03:30;3.37;;;1.30;;
5684;SDS011;2865;53.114;9.130;2022-08-03T12:05:52;7.60;;;1.20;;
5684;SDS011;2865;53.114;9.130;2022-08-03T12:08:28;2.70;;;1.27;;
5684;SDS011;2865;53.114;9.130;2022-08-03T12:10:58;2.30;;;1.40;;
5684;SDS011;2865;53.114;9.130;2022-08-03T12:13:23;5.63;;;1.67;;
5684;SDS011;2865;53.114;9.130;2022-08-03T12:15:50;3.50;;;1.77;;
5684;SDS011;2865;53.114;9.130;2022-08-03T12:18:16;7.20;;;1.30;;
5684;SDS011;2865;53.114;9.130;2022-08-03T12:20:41;4.13;;;1.50;;
5684;SDS011;2865;53.114;9.130;2022-08-03T12:23:06;4.53;;;1.97;;
5684;SDS011;2865;53.114;9.130;2022-08-03T12:25:32;3.20;;;1.23;;
5684;SDS011;2865;53.114;9.130;2022-08-03T12:28:05;8.77;;;2.00;;
5684;SDS011;2865;53.114;9.130;2022-08-03T12:30:32;3.27;;;1.63;;
5684;SDS011;2865;53.114;9.130;2022-08-03T12:32:57;4.13;;;1.63;;
5684;SDS011;2865;53.114;9.130;2022-08-03T12:35:23;10.90;;;2.30;;
5684;SDS011;2865;53.114;9.130;2022-08-03T12:37:48;5.43;;;1.53;;
5684;SDS011;2865;53.114;9.130;2022-08-03T12:40:13;7.43;;;1.67;;
5684;SDS011;2865;53.114;9.130;2022-08-03T12:42:38;3.80;;;1.87;;
5684;SDS011;2865;53.114;9.130;2022-08-03T12:47:49;4.07;;;1.80;;
5684;SDS011;2865;53.114;9.130;2022-08-03T12:52:47;7.67;;;1.67;;
5684;SDS011;2865;53.114;9.130;2022-08-03T12:55:17;2.70;;;1.47;;
5684;SDS011;2865;53.114;9.130;2022-08-03T12:57:39;3.47;;;1.20;;
5684;SDS011;2865;53.114;9.130;2022-08-03T13:00:09;2.83;;;1.40;;
5684;SDS011;2865;53.114;9.130;2022-08-03T13:02:35;1.37;;;1.17;;
5684;SDS011;2865;53.114;9.130;2022-08-03T13:05:08;3.80;;;1.30;;
5684;SDS011;2865;53.114;9.130;2022-08-03T13:07:26;13.73;;;1.70;;
5684;SDS011;2865;53.114;9.130;2022-08-03T13:09:52;2.77;;;1.47;;
5684;SDS011;2865;53.114;9.130;2022-08-03T13:12:18;2.80;;;1.57;;
5684;SDS011;2865;53.114;9.130;2022-08-03T13:14:43;7.20;;;1.67;;
5684;SDS011;2865;53.114;9.130;2022-08-03T13:17:08;7.13;;;1.90;;
5684;SDS011;2865;53.114;9.130;2022-08-03T13:19:33;2.50;;;1.63;;
5684;SDS011;2865;53.114;9.130;2022-08-03T13:21:58;4.37;;;1.70;;
5684;SDS011;2865;53.114;9.130;2022-08-03T13:24:24;5.90;;;1.40;;
5684;SDS011;2865;53.114;9.130;2022-08-03T13:26:49;2.20;;;1.43;;
5684;SDS011;2865;53.114;9.130;2022-08-03T13:29:15;6.13;;;2.10;;
5684;SDS011;2865;53.114;9.130;2022-08-03T13:31:40;1.87;;;1.20;;
5684;SDS011;2865;53.114;9.130;2022-08-03T13:34:05;3.90;;;1.20;;
5684;SDS011;2865;53.114;9.130;2022-08-03T13:36:31;4.50;;;1.80;;
5684;SDS011;2865;53.114;9.130;2022-08-03T13:38:56;9.10;;;1.70;;
5684;SDS011;2865;53.114;9.130;2022-08-03T13:41:21;5.60;;;2.20;;
5684;SDS011;2865;53.114;9.130;2022-08-03T13:43:47;4.93;;;1.40;;
5684;SDS011;2865;53.114;9.130;2022-08-03T13:46:12;6.63;;;1.67;;
5684;SDS011;2865;53.114;9.130;2022-08-03T13:48:37;8.43;;;2.40;;
5684;SDS011;2865;53.114;9.130;2022-08-03T13:51:03;3.83;;;1.80;;
5684;SDS011;2865;53.114;9.130;2022-08-03T13:53:28;6.30;;;1.70;;
5684;SDS011;2865;53.114;9.130;2022-08-03T13:55:54;4.13;;;1.37;;
5684;SDS011;2865;53.114;9.130;2022-08-03T13:58:19;5.97;;;1.90;;
5684;SDS011;2865;53.114;9.130;2022-08-03T14:00:44;3.67;;;1.40;;
5684;SDS011;2865;53.114;9.130;2022-08-03T14:03:09;5.83;;;1.57;;
5684;SDS011;2865;53.114;9.130;2022-08-03T14:05:35;6.80;;;1.70;;
5684;SDS011;2865;53.114;9.130;2022-08-03T14:08:00;5.90;;;1.50;;
5684;SDS011;2865;53.114;9.130;2022-08-03T14:10:26;4.20;;;1.37;;
5684;SDS011;2865;53.114;9.130;2022-08-03T14:12:51;3.63;;;1.77;;
5684;SDS011;2865;53.114;9.130;2022-08-03T14:15:16;2.63;;;1.40;;
5684;SDS011;2865;53.114;9.130;2022-08-03T14:17:42;5.60;;;1.57;;
5684;SDS011;2865;53.114;9.130;2022-08-03T14:20:08;8.03;;;1.70;;
5684;SDS011;2865;53.114;9.130;2022-08-03T14:22:34;4.13;;;1.80;;
5684;SDS011;2865;53.114;9.130;2022-08-03T14:24:59;8.03;;;2.37;;
5684;SDS011;2865;53.114;9.130;2022-08-03T14:27:24;3.40;;;2.20;;
5684;SDS011;2865;53.114;9.130;2022-08-03T14:29:50;5.93;;;1.63;;
5684;SDS011;2865;53.114;9.130;2022-08-03T14:32:15;2.47;;;1.60;;
5684;SDS011;2865;53.114;9.130;2022-08-03T14:34:40;5.90;;;1.47;;
5684;SDS011;2865;53.114;9.130;2022-08-03T14:37:06;5.00;;;1.77;;
5684;SDS011;2865;53.114;9.130;2022-08-03T14:39:31;3.20;;;1.77;;
5684;SDS011;2865;53.114;9.130;2022-08-03T14:41:56;3.63;;;1.53;;
5684;SDS011;2865;53.114;9.130;2022-08-03T14:44:22;7.33;;;1.40;;
5684;SDS011;2865;53.114;9.130;2022-08-03T14:46:47;6.00;;;1.60;;
5684;SDS011;2865;53.114;9.130;2022-08-03T14:49:12;2.17;;;1.60;;
5684;SDS011;2865;53.114;9.130;2022-08-03T14:51:38;7.53;;;1.83;;
5684;SDS011;2865;53.114;9.130;2022-08-03T14:54:03;7.70;;;2.23;;
5684;SDS011;2865;53.114;9.130;2022-08-03T14:56:29;3.50;;;1.73;;
5684;SDS011;2865;53.114;9.130;2022-08-03T14:58:54;5.23;;;2.20;;
5684;SDS011;2865;53.114;9.130;2022-08-03T15:01:19;7.13;;;2.10;;
5684;SDS011;2865;53.114;9.130;2022-08-03T15:03:45;2.90;;;1.53;;
5684;SDS011;2865;53.114;9.130;2022-08-03T15:06:10;5.57;;;1.50;;
5684;SDS011;2865;53.114;9.130;2022-08-03T15:08:35;6.70;;;2.40;;
5684;SDS011;2865;53.114;9.130;2022-08-03T15:11:01;6.00;;;2.70;;
5684;SDS011;2865;53.114;9.130;2022-08-03T15:13:26;3.50;;;1.70;;
5684;SDS011;2865;53.114;9.130;2022-08-03T15:15:51;5.10;;;1.83;;
5684;SDS011;2865;53.114;9.130;2022-08-03T15:18:17;6.20;;;1.53;;
5684;SDS011;2865;53.114;9.130;2022-08-03T15:20:42;2.60;;;1.50;;
5684;SDS011;2865;53.114;9.130;2022-08-03T15:23:07;3.97;;;2.03;;
5684;SDS011;2865;53.114;9.130;2022-08-03T15:25:33;8.70;;;2.10;;
5684;SDS011;2865;53.114;9.130;2022-08-03T15:27:58;9.60;;;1.93;;
5684;SDS011;2865;53.114;9.130;2022-08-03T15:30:23;7.20;;;2.20;;
5684;SDS011;2865;53.114;9.130;2022-08-03T15:32:49;3.53;;;1.50;;
5684;SDS011;2865;53.114;9.130;2022-08-03T15:35:14;10.13;;;2.17;;